createdAt,value
2019-01-28T00:01:41.519Z,96794.56
2019-01-28T00:04:08.951Z,96795.59
2019-01-28T00:06:36.411Z,96796.12
2019-01-28T00:09:03.832Z,96799.48
2019-01-28T00:11:31.280Z,96797.11
2019-01-28T00:13:58.737Z,96800.66
2019-01-28T00:16:26.167Z,96797.02
2019-01-28T00:18:53.698Z,96799.27
2019-01-28T00:21:21.158Z,96799.81
2019-01-28T00:23:49.571Z,96804.13
2019-01-28T00:26:17.937Z,96814.93
2019-01-28T00:28:45.583Z,96788.30
2019-01-28T00:31:13.502Z,96786.86
2019-01-28T00:33:40.973Z,96789.02
2019-01-28T00:36:08.436Z,96785.08
2019-01-28T00:38:36.055Z,96788.13
2019-01-28T00:41:03.527Z,96787.16
2019-01-28T00:43:30.974Z,96787.58
2019-01-28T00:45:59.696Z,96779.63
2019-01-28T00:48:27.203Z,96788.80
2019-01-28T00:50:54.621Z,96786.05
2019-01-28T00:53:22.065Z,96783.05
2019-01-28T00:55:49.497Z,96776.91
2019-01-28T00:58:16.961Z,96771.36
2019-01-28T01:00:44.431Z,96775.09
2019-01-28T01:03:12.004Z,96773.86
2019-01-28T01:05:39.479Z,96775.73
2019-01-28T01:08:07.008Z,96770.05
2019-01-28T01:10:34.662Z,96774.97
2019-01-28T01:13:02.118Z,96773.95
2019-01-28T01:15:29.570Z,96781.95
2019-01-28T01:17:57.195Z,96765.53
2019-01-28T01:20:25.480Z,96763.48
2019-01-28T01:22:53.100Z,96769.53
2019-01-28T01:25:20.745Z,96769.25
2019-01-28T01:27:49.230Z,96771.74
2019-01-28T01:30:16.717Z,96751.39
2019-01-28T01:32:44.233Z,96759.92
2019-01-28T01:35:11.740Z,96761.73
2019-01-28T01:37:39.234Z,96763.99
2019-01-28T01:40:06.649Z,96753.67
2019-01-28T01:42:34.145Z,96763.78
2019-01-28T01:45:01.691Z,96748.27
2019-01-28T01:47:29.169Z,96738.11
2019-01-28T01:49:56.607Z,96760.73
2019-01-28T01:52:24.226Z,96732.48
2019-01-28T01:54:51.681Z,96748.43
2019-01-28T01:57:19.710Z,96746.09
2019-01-28T01:59:47.176Z,96739.66
2019-01-28T02:02:14.660Z,96745.24
2019-01-28T02:04:42.100Z,96727.02
2019-01-28T02:07:09.550Z,96731.66
2019-01-28T02:09:37.992Z,96726.43
2019-01-28T02:12:05.499Z,96727.61
2019-01-28T02:14:33.191Z,96718.85
2019-01-28T02:17:00.829Z,96732.59
2019-01-28T02:19:28.305Z,96729.98
2019-01-28T02:21:55.782Z,96721.55
2019-01-28T02:24:23.299Z,96706.19
2019-01-28T02:26:51.034Z,96710.98
2019-01-28T02:29:18.497Z,96713.05
2019-01-28T02:31:45.932Z,96704.88
2019-01-28T02:34:13.378Z,96705.09
2019-01-28T02:36:40.844Z,96697.88
2019-01-28T02:39:08.351Z,96693.31
2019-01-28T02:41:35.799Z,96694.42
2019-01-28T02:44:03.273Z,96683.58
2019-01-28T02:46:30.739Z,96690.88
2019-01-28T02:48:58.178Z,96680.09
2019-01-28T02:51:25.638Z,96685.03
2019-01-28T02:53:53.093Z,96690.33
2019-01-28T02:56:22.358Z,96679.38
2019-01-28T02:58:50.930Z,96682.58
2019-01-28T03:01:18.397Z,96687.77
2019-01-28T03:03:45.849Z,96676.62
2019-01-28T03:06:13.294Z,96667.72
2019-01-28T03:08:40.768Z,96664.47
2019-01-28T03:11:08.198Z,96667.61
2019-01-28T03:13:35.655Z,96664.34
2019-01-28T03:16:03.101Z,96658.42
2019-01-28T03:18:30.596Z,96658.59
2019-01-28T03:20:58.018Z,96665.05
2019-01-28T03:23:25.460Z,96663.75
2019-01-28T03:25:52.923Z,96662.16
2019-01-28T03:28:21.393Z,96665.03
2019-01-28T03:30:49.370Z,96662.30
2019-01-28T03:33:16.815Z,96664.89
2019-01-28T03:35:44.303Z,96662.77
2019-01-28T03:38:11.783Z,96662.27
2019-01-28T03:40:39.215Z,96658.77
2019-01-28T03:43:06.694Z,96652.47
2019-01-28T03:45:34.166Z,96651.56
2019-01-28T03:48:01.662Z,96655.43
2019-01-28T03:50:29.159Z,96664.27
2019-01-28T03:52:56.610Z,96668.75
2019-01-28T03:55:24.049Z,96649.36
2019-01-28T03:57:51.865Z,96665.02
2019-01-28T04:00:22.118Z,96656.56
2019-01-28T04:02:49.563Z,96665.58
2019-01-28T04:05:17.032Z,96660.73
2019-01-28T04:07:44.486Z,96658.95
2019-01-28T04:10:12.733Z,96663.31
2019-01-28T04:12:40.169Z,96653.39
2019-01-28T04:15:08.715Z,96647.82
2019-01-28T04:17:36.171Z,96646.22
2019-01-28T04:20:03.617Z,96647.54
2019-01-28T04:22:31.397Z,96657.45
2019-01-28T04:24:58.846Z,96650.22
2019-01-28T04:27:26.276Z,96650.22
2019-01-28T04:29:53.711Z,96650.60
2019-01-28T04:32:21.219Z,96646.34
2019-01-28T04:34:48.672Z,96652.34
2019-01-28T04:37:16.704Z,96648.86
2019-01-28T04:39:44.135Z,96647.47
2019-01-28T04:42:11.625Z,96640.27
2019-01-28T04:44:39.059Z,96642.06
2019-01-28T04:47:06.476Z,96638.20
2019-01-28T04:49:33.932Z,96635.09
2019-01-28T04:52:01.393Z,96638.16
2019-01-28T04:54:28.827Z,96635.81
2019-01-28T04:56:56.264Z,96634.09
2019-01-28T04:59:23.707Z,96641.80
2019-01-28T05:01:51.162Z,96637.22
2019-01-28T05:04:18.603Z,96641.02
2019-01-28T05:06:46.939Z,96635.66
2019-01-28T05:09:14.402Z,96637.19
2019-01-28T05:11:41.855Z,96646.83
2019-01-28T05:14:09.324Z,96647.51
2019-01-28T05:16:36.757Z,96651.23
2019-01-28T05:19:04.206Z,96644.89
2019-01-28T05:21:31.715Z,96636.11
2019-01-28T05:23:59.203Z,96639.86
2019-01-28T05:26:26.628Z,96642.16
2019-01-28T05:28:54.218Z,96637.09
2019-01-28T05:31:21.646Z,96643.16
2019-01-28T05:33:49.125Z,96646.96
2019-01-28T05:36:16.538Z,96646.88
2019-01-28T05:38:43.974Z,96655.31
2019-01-28T05:41:11.441Z,96645.52
2019-01-28T05:43:38.878Z,96652.55
2019-01-28T05:46:06.359Z,96645.78
2019-01-28T05:48:33.816Z,96641.80
2019-01-28T05:51:01.250Z,96648.34
2019-01-28T05:53:28.694Z,96649.66
2019-01-28T05:55:56.133Z,96658.55
2019-01-28T05:58:24.300Z,96655.93
2019-01-28T06:00:51.770Z,96658.86
2019-01-28T06:03:19.198Z,96651.52
2019-01-28T06:05:46.687Z,96653.84
2019-01-28T06:08:14.969Z,96650.46
2019-01-28T06:10:44.861Z,96654.20
2019-01-28T06:13:12.373Z,96669.31
2019-01-28T06:15:39.811Z,96663.85
2019-01-28T06:18:07.240Z,96670.95
2019-01-28T06:20:34.685Z,96663.77
2019-01-28T06:23:02.146Z,96666.75
2019-01-28T06:25:29.579Z,96667.70
2019-01-28T06:27:57.034Z,96662.18
2019-01-28T06:30:25.330Z,96673.73
2019-01-28T06:32:52.796Z,96681.35
2019-01-28T06:35:20.218Z,96672.88
2019-01-28T06:37:47.680Z,96674.41
2019-01-28T06:40:25.136Z,96672.80
2019-01-28T06:42:52.581Z,96672.09
2019-01-28T06:45:20.057Z,96678.52
2019-01-28T06:47:47.474Z,96678.20
2019-01-28T06:50:15.909Z,96673.54
2019-01-28T06:52:43.321Z,96681.61
2019-01-28T06:55:10.781Z,96677.41
2019-01-28T06:57:38.217Z,96689.75
2019-01-28T07:00:25.154Z,96679.06
2019-01-28T07:02:52.570Z,96689.08
2019-01-28T07:05:20.014Z,96688.73
2019-01-28T07:07:47.489Z,96687.29
2019-01-28T07:10:14.922Z,96691.33
2019-01-28T07:12:42.434Z,96696.80
2019-01-28T07:15:09.877Z,96698.50
2019-01-28T07:17:37.340Z,96705.34
2019-01-28T07:20:04.798Z,96699.82
2019-01-28T07:22:32.310Z,96700.70
2019-01-28T07:24:59.805Z,96703.61
2019-01-28T07:27:27.255Z,96705.38
2019-01-28T07:29:54.698Z,96709.11
2019-01-28T07:32:22.174Z,96707.03
2019-01-28T07:34:49.645Z,96709.73
2019-01-28T07:37:17.070Z,96718.22
2019-01-28T07:39:44.578Z,96720.67
2019-01-28T07:42:12.030Z,96716.75
2019-01-28T07:44:39.461Z,96723.92
2019-01-28T07:47:06.910Z,96727.59
2019-01-28T07:49:34.363Z,96734.75
2019-01-28T07:52:02.817Z,96728.62
2019-01-28T07:54:30.371Z,96736.88
2019-01-28T07:56:57.852Z,96747.08
2019-01-28T07:59:25.284Z,96746.54
2019-01-28T08:01:52.738Z,96749.98
2019-01-28T08:04:20.175Z,96749.16
2019-01-28T08:06:47.695Z,96751.97
2019-01-28T08:09:15.149Z,96757.57
2019-01-28T08:11:42.593Z,96767.91
2019-01-28T08:14:10.029Z,96767.70
2019-01-28T08:16:37.516Z,96774.87
2019-01-28T08:19:04.949Z,96773.83
2019-01-28T08:21:32.396Z,96778.59
2019-01-28T08:23:59.855Z,96781.69
2019-01-28T08:26:27.313Z,96782.11
2019-01-28T08:28:54.751Z,96797.11
2019-01-28T08:31:22.245Z,96804.84
2019-01-28T08:33:49.655Z,96796.85
2019-01-28T08:36:18.744Z,96796.65
2019-01-28T08:38:46.914Z,96803.12
2019-01-28T08:41:14.391Z,96806.08
2019-01-28T08:43:41.846Z,96808.69
2019-01-28T08:46:09.273Z,96815.81
2019-01-28T08:48:36.716Z,96800.22
2019-01-28T08:51:04.190Z,96808.20
2019-01-28T08:53:31.634Z,96815.16
2019-01-28T08:55:59.055Z,96813.53
2019-01-28T08:58:27.552Z,96817.50
2019-01-28T09:00:55.043Z,96817.10
2019-01-28T09:03:22.492Z,96827.04
2019-01-28T09:05:49.951Z,96820.32
2019-01-28T09:08:17.371Z,96830.59
2019-01-28T09:10:44.840Z,96835.48
2019-01-28T09:13:12.297Z,96848.86
2019-01-28T09:15:39.771Z,96850.67
2019-01-28T09:18:07.256Z,96854.43
2019-01-28T09:20:35.743Z,96851.57
2019-01-28T09:23:03.284Z,96862.42
2019-01-28T09:25:30.728Z,96874.23
2019-01-28T09:27:58.190Z,96868.19
2019-01-28T09:30:26.354Z,96876.41
2019-01-28T09:32:53.775Z,96882.73
2019-01-28T09:35:21.223Z,96891.83
2019-01-28T09:37:48.675Z,96897.77
2019-01-28T09:40:19.719Z,96899.63
2019-01-28T09:42:47.158Z,96915.38
2019-01-28T09:45:17.510Z,96923.34
2019-01-28T09:47:44.926Z,96922.46
2019-01-28T09:50:12.390Z,96930.22
2019-01-28T09:52:39.830Z,96932.12
2019-01-28T09:55:07.291Z,96948.81
2019-01-28T09:57:34.760Z,96954.03
2019-01-28T10:00:02.235Z,96960.59
2019-01-28T10:02:29.685Z,96968.02
2019-01-28T10:04:57.151Z,96970.22
2019-01-28T10:07:24.643Z,96975.39
2019-01-28T10:09:52.071Z,96977.84
2019-01-28T10:12:21.757Z,96976.06
2019-01-28T10:14:49.313Z,96991.74
2019-01-28T10:17:16.795Z,96992.22
2019-01-28T10:19:44.231Z,96995.87
2019-01-28T10:22:11.665Z,97013.52
2019-01-28T10:24:39.100Z,97004.47
2019-01-28T10:27:06.563Z,97017.59
2019-01-28T10:29:34.401Z,97013.41
2019-01-28T10:32:01.920Z,97020.58
2019-01-28T10:34:29.674Z,97017.31
2019-01-28T10:36:57.224Z,97019.30
2019-01-28T10:39:24.669Z,97028.63
2019-01-28T10:41:52.121Z,97030.55
2019-01-28T10:44:19.576Z,97034.73
2019-01-28T10:46:47.029Z,97030.28
2019-01-28T10:49:14.491Z,97042.25
2019-01-28T10:51:41.939Z,97045.16
2019-01-28T10:54:09.384Z,97046.80
2019-01-28T10:56:36.850Z,97046.44
2019-01-28T10:59:04.319Z,97052.80
2019-01-28T11:01:31.771Z,97049.83
2019-01-28T11:04:00.073Z,97065.61
2019-01-28T11:06:27.510Z,97073.11
2019-01-28T11:08:54.983Z,97067.38
2019-01-28T11:11:22.440Z,97076.38
2019-01-28T11:13:49.982Z,97083.23
2019-01-28T11:16:17.423Z,97080.36
2019-01-28T11:18:45.783Z,97094.58
2019-01-28T11:21:13.375Z,97097.25
2019-01-28T11:23:40.868Z,97105.25
2019-01-28T11:26:08.317Z,97101.55
2019-01-28T11:28:35.720Z,97111.91
2019-01-28T11:31:03.285Z,97107.88
2019-01-28T11:33:30.802Z,97118.27
2019-01-28T11:36:05.136Z,97115.41
2019-01-28T11:38:25.868Z,97118.15
2019-01-28T11:40:54.013Z,97122.20
2019-01-28T11:43:21.790Z,97133.54
2019-01-28T11:45:50.001Z,97124.76
2019-01-28T11:48:17.560Z,97129.20
2019-01-28T11:50:44.882Z,97133.47
2019-01-28T11:53:12.332Z,97145.44
2019-01-28T11:55:39.787Z,97145.11
2019-01-28T11:58:07.244Z,97143.58
2019-01-28T12:00:53.395Z,97149.92
2019-01-28T12:03:20.852Z,97155.11
2019-01-28T12:05:48.293Z,97164.77
2019-01-28T12:08:15.801Z,97174.73
2019-01-28T12:10:43.257Z,97182.73
2019-01-28T12:13:10.687Z,97187.29
2019-01-28T12:15:38.116Z,97183.56
2019-01-28T12:18:06.077Z,97196.58
2019-01-28T12:20:32.983Z,97203.28
2019-01-28T12:23:00.442Z,97199.28
2019-01-28T12:25:27.877Z,97208.38
2019-01-28T12:27:55.303Z,97216.11
2019-01-28T12:30:24.288Z,97219.28
2019-01-28T12:32:51.729Z,97234.16
2019-01-28T12:35:19.167Z,97234.13
2019-01-28T12:37:46.649Z,97235.05
2019-01-28T12:40:14.874Z,97238.34
2019-01-28T12:42:41.579Z,97242.81
2019-01-28T12:45:09.780Z,97254.58
2019-01-28T12:47:37.223Z,97261.27
2019-01-28T12:50:06.220Z,97262.27
2019-01-28T12:52:33.669Z,97270.98
2019-01-28T12:55:01.135Z,97274.92
2019-01-28T12:57:28.547Z,97287.66
2019-01-28T12:59:55.991Z,97313.00
2019-01-28T13:02:23.471Z,97290.08
2019-01-28T13:04:50.923Z,97303.55
2019-01-28T13:07:18.391Z,97310.42
2019-01-28T13:09:45.799Z,97321.58
2019-01-28T13:12:13.249Z,97330.34
2019-01-28T13:14:40.679Z,97328.98
2019-01-28T13:17:08.154Z,97335.98
2019-01-28T13:19:35.643Z,97348.20
2019-01-28T13:22:03.076Z,97357.05
2019-01-28T13:24:30.527Z,97360.62
2019-01-28T13:26:57.979Z,97369.53
2019-01-28T13:29:25.432Z,97367.30
2019-01-28T13:31:52.889Z,97359.31
2019-01-28T13:34:20.295Z,97385.25
2019-01-28T13:36:47.731Z,97383.39
2019-01-28T13:39:15.184Z,97385.83
2019-01-28T13:41:42.625Z,97396.06
2019-01-28T13:44:10.086Z,97392.75
2019-01-28T13:46:37.503Z,97400.00
2019-01-28T13:49:04.957Z,97407.92
2019-01-28T13:51:33.295Z,97420.65
2019-01-28T13:54:00.769Z,97433.42
2019-01-28T13:56:28.262Z,97437.25
2019-01-28T13:58:55.688Z,97447.33
2019-01-28T14:01:23.136Z,97449.39
2019-01-28T14:03:50.642Z,97456.05
2019-01-28T14:06:18.090Z,97457.27
2019-01-28T14:08:45.545Z,97460.14
2019-01-28T14:11:12.970Z,97478.02
2019-01-28T14:13:40.413Z,97474.78
2019-01-28T14:16:07.885Z,97476.58
2019-01-28T14:18:35.324Z,97483.84
2019-01-28T14:21:02.770Z,97493.36
2019-01-28T14:23:30.221Z,97495.28
2019-01-28T14:25:57.653Z,97513.54
2019-01-28T14:28:25.087Z,97522.23
2019-01-28T14:30:52.569Z,97560.77
2019-01-28T14:33:20.044Z,97540.52
2019-01-28T14:35:47.510Z,97534.65
2019-01-28T14:38:14.943Z,97543.65
2019-01-28T14:40:42.396Z,97543.89
2019-01-28T14:43:09.835Z,97556.56
2019-01-28T14:45:37.274Z,97566.55
2019-01-28T14:48:04.742Z,97570.04
2019-01-28T14:50:34.001Z,97587.59
2019-01-28T14:53:01.475Z,97589.47
2019-01-28T14:55:28.915Z,97593.28
2019-01-28T14:57:56.331Z,97599.61
2019-01-28T15:00:26.715Z,97606.88
2019-01-28T15:02:54.164Z,97616.79
2019-01-28T15:05:21.598Z,97609.81
2019-01-28T15:07:49.057Z,97622.95
2019-01-28T15:10:17.573Z,97625.50
2019-01-28T15:12:45.095Z,97628.06
2019-01-28T15:15:20.832Z,97634.49
2019-01-28T15:17:48.332Z,97644.33
2019-01-28T15:20:15.766Z,97647.72
2019-01-28T15:22:43.207Z,97658.02
2019-01-28T15:25:10.664Z,97661.02
2019-01-28T15:27:38.142Z,97673.65
2019-01-28T15:30:06.515Z,97671.02
2019-01-28T15:32:35.525Z,97679.11
2019-01-28T15:35:03.079Z,97691.91
2019-01-28T15:37:30.548Z,97686.55
2019-01-28T15:39:57.992Z,97683.25
2019-01-28T15:42:25.425Z,97688.71
2019-01-28T15:44:52.834Z,97704.80
2019-01-28T15:47:21.266Z,97707.23
2019-01-28T15:49:48.810Z,97717.71
2019-01-28T15:52:16.268Z,97717.69
2019-01-28T15:54:43.765Z,97731.53
2019-01-28T15:57:11.235Z,97725.44
2019-01-28T15:59:38.670Z,97739.42
2019-01-28T16:02:06.129Z,97749.45
2019-01-28T16:04:34.170Z,97747.03
2019-01-28T16:07:01.609Z,97756.16
2019-01-28T16:09:30.700Z,97757.69
2019-01-28T16:14:38.468Z,97765.70
2019-01-28T16:17:06.417Z,97772.00
2019-01-28T16:19:34.579Z,97780.03
2019-01-28T16:22:02.054Z,97790.31
2019-01-28T16:24:29.650Z,97791.45
2019-01-28T16:26:57.208Z,97814.51
2019-01-28T16:29:24.658Z,97822.61
2019-01-28T16:31:53.123Z,97814.17
2019-01-28T16:34:20.616Z,97832.71
2019-01-28T16:36:48.162Z,97831.15
2019-01-28T16:39:15.661Z,97841.55
2019-01-28T16:41:45.262Z,97843.39
2019-01-28T16:44:14.361Z,97845.95
2019-01-28T16:46:43.981Z,97828.55
2019-01-28T16:49:13.167Z,97836.20
2019-01-28T16:51:42.130Z,97853.14
2019-01-28T16:54:14.599Z,97850.72
2019-01-28T16:56:44.785Z,97856.38
2019-01-28T16:59:15.421Z,97864.42
2019-01-28T17:01:45.542Z,97874.95
2019-01-28T17:04:14.789Z,97876.95
2019-01-28T17:06:43.627Z,97886.88
2019-01-28T17:09:12.736Z,97892.28
2019-01-28T17:11:41.888Z,97892.84
2019-01-28T17:14:11.490Z,97902.18
2019-01-28T17:16:39.014Z,97899.33
2019-01-28T17:19:06.475Z,97915.62
2019-01-28T17:21:34.012Z,97916.59
2019-01-28T17:24:01.529Z,97918.06
2019-01-28T17:26:29.026Z,97921.25
2019-01-28T17:28:56.548Z,97927.02
2019-01-28T17:31:23.991Z,97933.41
2019-01-28T17:33:51.487Z,97932.97
2019-01-28T17:36:18.998Z,97943.80
2019-01-28T17:38:47.458Z,97942.39
2019-01-28T17:41:14.903Z,97943.86
2019-01-28T17:43:43.246Z,97951.92
2019-01-28T17:46:10.742Z,97954.22
2019-01-28T17:48:38.251Z,97961.89
2019-01-28T17:51:05.703Z,97957.47
2019-01-28T17:53:33.177Z,97970.16
2019-01-28T17:56:00.698Z,97974.75
2019-01-28T17:58:28.200Z,97971.80
2019-01-28T18:00:55.719Z,97976.35
2019-01-28T18:03:23.191Z,97989.53
2019-01-28T18:05:50.673Z,97983.89
2019-01-28T18:08:18.221Z,97989.23
2019-01-28T18:10:45.710Z,97996.31
2019-01-28T18:13:14.027Z,98003.69
2019-01-28T18:15:42.585Z,98008.31
2019-01-28T18:18:10.127Z,98008.81
2019-01-28T18:20:37.635Z,98009.69
2019-01-28T18:23:05.113Z,98008.70
2019-01-28T18:25:35.434Z,98014.55
2019-01-28T18:28:02.922Z,98018.53
2019-01-28T18:30:49.618Z,98026.41
2019-01-28T18:33:17.061Z,98019.34
2019-01-28T18:35:44.530Z,98028.75
2019-01-28T18:38:11.984Z,98027.89
2019-01-28T18:40:39.457Z,98034.25
2019-01-28T18:43:06.913Z,98028.20
2019-01-28T18:45:39.328Z,98036.58
2019-01-28T18:48:08.569Z,98045.90
2019-01-28T18:50:41.589Z,98038.62
2019-01-28T18:53:12.095Z,98051.63
2019-01-28T18:55:47.331Z,98058.28
2019-01-28T18:58:15.222Z,98062.55
2019-01-28T19:00:45.867Z,98064.27
2019-01-28T19:03:15.052Z,98068.80
2019-01-28T19:05:59.072Z,98076.52
2019-01-28T19:08:42.737Z,98079.71
2019-01-28T19:11:23.933Z,98073.47
2019-01-28T19:14:06.155Z,98086.97
2019-01-28T19:16:38.868Z,98095.10
2019-01-28T19:19:07.549Z,98095.31
2019-01-28T19:22:02.261Z,98089.94
2019-01-28T19:24:51.246Z,98103.33
2019-01-28T19:27:27.890Z,98105.42
2019-01-28T19:29:57.264Z,98103.36
2019-01-28T19:32:28.122Z,98108.89
2019-01-28T19:35:05.550Z,98120.99
2019-01-28T19:37:45.385Z,98119.05
2019-01-28T19:40:21.731Z,98123.74
2019-01-28T19:42:50.019Z,98126.00
2019-01-28T19:45:17.805Z,98131.38
2019-01-28T19:54:20.063Z,98145.97
2019-01-28T20:06:19.807Z,98164.42
2019-01-28T20:14:58.706Z,98173.80
2019-01-28T20:17:49.075Z,98175.98
2019-01-28T20:20:29.972Z,98174.50
2019-01-28T20:22:58.755Z,98182.98
2019-01-28T20:25:35.627Z,98181.33
2019-01-28T20:28:02.293Z,98182.60
2019-01-28T20:30:30.087Z,98190.42
2019-01-28T20:33:16.333Z,98195.52
2019-01-28T20:36:06.009Z,98204.44
2019-01-28T20:44:36.009Z,98207.84
2019-01-28T20:47:09.514Z,98216.28
2019-01-28T20:55:59.601Z,98227.93
2019-01-28T21:01:37.026Z,98232.44
2019-01-28T21:04:08.571Z,98238.14
2019-01-28T21:12:26.080Z,98236.00
2019-01-28T21:14:54.085Z,98242.50
2019-01-28T21:17:21.627Z,98233.53
2019-01-28T21:19:49.100Z,98246.44
2019-01-28T21:22:16.866Z,98248.81
2019-01-28T21:24:45.091Z,98248.23
2019-01-28T21:32:37.267Z,98259.05
2019-01-28T21:35:27.688Z,98265.45
2019-01-28T21:38:26.777Z,98266.90
2019-01-28T21:40:57.895Z,98267.39
2019-01-28T21:43:25.438Z,98269.05
2019-01-28T21:46:10.398Z,98268.41
2019-01-28T21:48:56.670Z,98266.30
2019-01-28T21:57:30.273Z,98276.58
2019-01-28T22:15:39.727Z,98297.74
2019-01-28T22:18:12.807Z,98304.72
2019-01-28T22:20:42.809Z,98310.70
2019-01-28T22:26:25.338Z,98312.26
2019-01-28T22:29:01.920Z,98323.70
2019-01-28T22:31:34.833Z,98319.24
2019-01-28T22:34:04.038Z,98319.47
2019-01-28T22:36:31.674Z,98321.92
2019-01-28T22:42:05.504Z,98329.66
2019-01-28T22:44:37.326Z,98324.73
2019-01-28T22:47:05.656Z,98332.69
2019-01-28T22:49:34.297Z,98328.53
2019-01-28T22:52:07.727Z,98331.73
2019-01-28T22:54:31.826Z,98332.34
2019-01-28T22:57:00.024Z,98331.51
2019-01-28T22:59:28.719Z,98337.69
2019-01-28T23:01:57.715Z,98329.36
2019-01-28T23:04:27.011Z,98330.25
2019-01-28T23:06:55.524Z,98335.00
2019-01-28T23:09:23.121Z,98332.86
2019-01-28T23:11:50.541Z,98341.95
2019-01-28T23:14:18.030Z,98346.30
2019-01-28T23:16:46.582Z,98345.77
2019-01-28T23:19:19.056Z,98349.08
2019-01-28T23:21:48.883Z,98345.72
2019-01-28T23:24:17.727Z,98348.38
2019-01-28T23:26:46.160Z,98348.45
2019-01-28T23:29:38.893Z,98351.67
2019-01-28T23:32:07.953Z,98349.53
2019-01-28T23:34:36.892Z,98354.66
2019-01-28T23:37:07.313Z,98362.55
2019-01-28T23:39:35.906Z,98365.50
2019-01-28T23:42:03.607Z,98365.40
2019-01-28T23:44:31.133Z,98377.91
2019-01-28T23:46:58.572Z,98376.84
2019-01-28T23:49:26.083Z,98376.56
2019-01-28T23:51:57.300Z,98383.37
2019-01-28T23:54:25.495Z,98378.93
2019-01-28T23:56:56.143Z,98380.61
2019-01-28T23:59:25.842Z,98393.96
